Time;durP1;ratioP1;P1;durP2;ratioP2;P2;SDS_P1;SDS_P2;PMS_P1;PMS_P2;Temp;Humidity;BMP_temperature;BMP_pressure;BME280_temperature;BME280_humidity;BME280_pressure;Samples;Min_cycle;Max_cycle;Signal;HPM_P1;HPM_P2
2023/12/28 00:00:11;;;;;;;8.77;5.10;;;5.10;99.90;;;;;;5050388;28;20260;-59
2023/12/28 00:02:40;;;;;;;11.80;6.10;;;5.00;99.90;;;;;;5050292;28;20244;-59
2023/12/28 00:05:08;;;;;;;9.10;5.78;;;4.90;99.90;;;;;;5040762;28;20206;-59
2023/12/28 00:07:36;;;;;;;6.82;5.55;;;4.90;99.90;;;;;;5047195;28;20214;-59
2023/12/28 00:10:05;;;;;;;12.57;6.45;;;4.90;99.90;;;;;;5049985;28;20210;-59
2023/12/28 00:12:33;;;;;;;9.93;5.60;;;4.90;99.90;;;;;;5050166;28;20812;-59
2023/12/28 00:15:00;;;;;;;9.32;6.13;;;4.90;99.90;;;;;;5045659;28;20847;-59
2023/12/28 00:17:30;;;;;;;9.10;5.82;;;4.90;99.90;;;;;;5044148;28;20203;-59
2023/12/28 00:19:58;;;;;;;13.00;5.90;;;4.90;99.90;;;;;;5053353;28;20275;-58
2023/12/28 00:22:26;;;;;;;7.68;5.13;;;4.90;99.90;;;;;;5053407;28;20221;-59
2023/12/28 00:24:53;;;;;;;9.85;5.47;;;4.80;99.90;;;;;;5053340;28;20229;-59
2023/12/28 00:27:21;;;;;;;11.52;5.88;;;4.80;99.90;;;;;;5052972;28;20288;-59
2023/12/28 00:29:49;;;;;;;10.32;6.28;;;4.80;99.90;;;;;;5037363;28;20206;-60
2023/12/28 00:32:17;;;;;;;10.27;6.28;;;4.80;99.90;;;;;;5047553;28;20313;-60
2023/12/28 00:34:46;;;;;;;9.23;6.60;;;4.80;99.90;;;;;;5049959;28;20209;-58
2023/12/28 00:37:14;;;;;;;9.98;5.95;;;4.80;99.90;;;;;;5052748;28;20218;-59
2023/12/28 00:39:42;;;;;;;11.10;6.38;;;4.80;99.90;;;;;;5049334;28;20756;-59
2023/12/28 00:42:10;;;;;;;8.50;6.28;;;4.80;99.90;;;;;;5040941;28;20272;-59
2023/12/28 00:44:38;;;;;;;11.98;6.80;;;4.80;99.90;;;;;;5048266;28;20202;-60
2023/12/28 00:47:06;;;;;;;10.75;6.70;;;4.70;99.90;;;;;;5052468;28;20206;-59
2023/12/28 00:49:34;;;;;;;10.63;5.60;;;4.70;99.90;;;;;;5052900;28;20202;-60
2023/12/28 00:52:04;;;;;;;8.57;5.72;;;4.70;99.90;;;;;;5052427;28;20237;-59
2023/12/28 00:54:32;;;;;;;6.80;5.63;;;4.70;99.90;;;;;;5052753;28;20202;-60
2023/12/28 00:56:59;;;;;;;14.38;6.78;;;4.70;99.90;;;;;;5051672;28;20206;-58
2023/12/28 00:59:27;;;;;;;9.70;6.05;;;4.80;99.90;;;;;;5051466;28;20206;-59
2023/12/28 01:01:55;;;;;;;11.18;6.13;;;4.80;99.90;;;;;;5052383;28;20226;-59
2023/12/28 01:04:23;;;;;;;11.35;5.65;;;4.80;99.90;;;;;;5050268;28;20206;-57
2023/12/28 01:06:52;;;;;;;10.18;6.05;;;4.90;99.90;;;;;;5040038;28;20276;-59
2023/12/28 01:09:21;;;;;;;9.80;6.05;;;5.00;99.90;;;;;;5047779;28;20203;-58
2023/12/28 01:11:49;;;;;;;9.90;5.95;;;5.10;99.90;;;;;;5051897;28;20230;-59
2023/12/28 01:14:17;;;;;;;12.77;6.47;;;5.10;99.90;;;;;;5052344;28;20551;-57
2023/12/28 01:16:45;;;;;;;9.27;5.60;;;5.20;99.90;;;;;;5051959;28;20206;-60
2023/12/28 01:19:13;;;;;;;8.60;5.72;;;5.30;99.90;;;;;;5036612;28;20257;-58
2023/12/28 01:21:41;;;;;;;8.90;5.25;;;5.30;99.90;;;;;;5048341;28;20619;-59
2023/12/28 01:24:09;;;;;;;7.35;5.10;;;5.30;99.90;;;;;;5051689;28;20202;-60
2023/12/28 01:26:38;;;;;;;5.45;4.63;;;5.40;99.90;;;;;;5040758;28;20203;-60
2023/12/28 01:29:06;;;;;;;6.65;4.65;;;5.50;99.90;;;;;;5051336;28;20233;-58
2023/12/28 01:31:34;;;;;;;9.20;4.57;;;5.60;99.90;;;;;;5051896;28;20254;-58
2023/12/28 01:34:02;;;;;;;5.43;4.38;;;5.70;99.90;;;;;;5043320;28;20229;-58
2023/12/28 01:36:30;;;;;;;9.48;5.03;;;5.70;99.90;;;;;;5047562;28;20289;-60
2023/12/28 01:38:58;;;;;;;7.05;4.25;;;5.80;99.90;;;;;;5047625;28;20275;-58
2023/12/28 01:41:26;;;;;;;6.13;4.78;;;5.80;99.90;;;;;;5046145;28;20229;-59
2023/12/28 01:43:55;;;;;;;5.13;4.38;;;5.80;99.90;;;;;;5044421;28;20579;-59
2023/12/28 01:46:23;;;;;;;6.57;4.03;;;5.90;99.90;;;;;;5038443;28;20230;-60
2023/12/28 01:48:51;;;;;;;6.88;4.30;;;5.90;99.90;;;;;;5047078;28;20205;-59
2023/12/28 01:51:19;;;;;;;8.20;4.35;;;6.00;99.90;;;;;;5048092;28;20291;-60
2023/12/28 01:53:48;;;;;;;4.93;4.10;;;6.00;99.90;;;;;;5051265;28;20237;-61
2023/12/28 01:56:16;;;;;;;4.82;3.85;;;6.10;99.90;;;;;;5043286;28;20264;-59
2023/12/28 01:58:44;;;;;;;10.18;4.07;;;6.20;99.90;;;;;;5047540;28;20210;-59
2023/12/28 02:01:13;;;;;;;6.40;4.25;;;6.20;99.90;;;;;;5051454;28;20321;-60
2023/12/28 02:03:41;;;;;;;6.70;4.65;;;6.20;99.90;;;;;;5051063;28;20237;-60
2023/12/28 02:06:09;;;;;;;3.80;3.50;;;6.20;99.90;;;;;;5047941;28;20203;-59
2023/12/28 02:08:37;;;;;;;5.68;3.85;;;6.30;99.90;;;;;;5035370;28;20210;-59
2023/12/28 02:11:05;;;;;;;4.82;3.85;;;6.30;99.90;;;;;;5050346;28;20264;-58
2023/12/28 02:13:33;;;;;;;4.97;3.80;;;6.30;99.90;;;;;;5044855;28;20703;-59
2023/12/28 02:16:03;;;;;;;8.75;4.03;;;6.40;99.90;;;;;;5043332;28;20249;-59
2023/12/28 02:18:35;;;;;;;5.05;4.00;;;6.40;99.90;;;;;;5050932;28;20234;-59
2023/12/28 02:21:03;;;;;;;4.82;3.60;;;6.40;99.90;;;;;;5049290;28;20228;-59
2023/12/28 02:23:33;;;;;;;8.60;3.72;;;6.40;99.90;;;;;;5051110;28;20220;-58
2023/12/28 02:26:02;;;;;;;5.85;3.95;;;6.40;99.90;;;;;;5050976;28;20238;-61
2023/12/28 02:28:30;;;;;;;9.82;3.92;;;6.40;99.90;;;;;;5050896;28;20273;-58
2023/12/28 02:30:57;;;;;;;5.72;3.80;;;6.50;99.90;;;;;;5051015;28;20287;-58
2023/12/28 02:33:27;;;;;;;8.45;3.65;;;6.50;99.90;;;;;;5046963;28;20222;-58
2023/12/28 02:35:57;;;;;;;7.35;4.30;;;6.50;99.90;;;;;;5039279;28;20265;-58
2023/12/28 02:38:26;;;;;;;6.82;4.00;;;6.50;99.90;;;;;;5040809;28;20218;-59
2023/12/28 02:40:53;;;;;;;7.15;4.43;;;6.50;99.90;;;;;;5045393;28;20205;-59
2023/12/28 02:43:23;;;;;;;6.13;3.80;;;6.50;99.90;;;;;;5044899;28;20203;-59
2023/12/28 02:45:51;;;;;;;5.75;3.45;;;6.50;99.90;;;;;;5044997;28;20245;-59
2023/12/28 02:48:19;;;;;;;3.90;3.47;;;6.50;99.90;;;;;;5052438;28;20289;-59
2023/12/28 02:50:47;;;;;;;4.88;3.47;;;6.60;99.90;;;;;;5053119;28;20721;-60
2023/12/28 02:53:15;;;;;;;4.57;4.00;;;6.60;99.90;;;;;;5051100;28;20281;-59
2023/12/28 02:55:42;;;;;;;7.07;3.63;;;6.60;99.90;;;;;;5049260;28;20263;-60
2023/12/28 02:58:10;;;;;;;6.95;3.53;;;6.70;99.90;;;;;;5054557;28;20234;-59
2023/12/28 03:00:39;;;;;;;3.78;3.28;;;6.70;99.90;;;;;;5054888;28;20672;-58
2023/12/28 03:03:08;;;;;;;4.72;3.25;;;6.70;99.90;;;;;;5054251;28;20313;-60
2023/12/28 03:05:36;;;;;;;5.25;3.63;;;6.80;99.90;;;;;;5054671;28;20206;-59
2023/12/28 03:08:05;;;;;;;4.97;3.13;;;6.80;99.90;;;;;;5054416;28;20210;-58
2023/12/28 03:10:32;;;;;;;8.05;3.95;;;6.80;99.90;;;;;;5054801;28;20260;-59
2023/12/28 03:13:00;;;;;;;3.63;3.05;;;6.80;99.90;;;;;;5054207;28;20237;-59
2023/12/28 03:15:28;;;;;;;5.10;3.08;;;6.80;99.90;;;;;;5049586;28;20633;-59
2023/12/28 03:17:58;;;;;;;5.20;3.30;;;6.90;99.90;;;;;;5049880;28;20634;-59
2023/12/28 03:20:26;;;;;;;4.75;3.33;;;6.90;99.90;;;;;;5047888;28;20236;-59
2023/12/28 03:22:54;;;;;;;6.03;2.92;;;6.90;99.90;;;;;;5054190;28;20723;-59
2023/12/28 03:25:22;;;;;;;7.10;3.53;;;6.90;99.90;;;;;;5054400;28;20232;-59
2023/12/28 03:27:50;;;;;;;6.63;3.40;;;6.90;99.90;;;;;;5050098;28;20202;-59
2023/12/28 03:30:18;;;;;;;7.35;3.25;;;6.90;99.90;;;;;;5042502;28;20237;-59
2023/12/28 03:32:46;;;;;;;6.43;3.30;;;6.90;99.90;;;;;;5039403;28;20584;-59
2023/12/28 03:35:15;;;;;;;7.65;3.22;;;6.90;99.90;;;;;;5046424;28;20974;-59
2023/12/28 03:37:43;;;;;;;4.70;2.95;;;6.90;99.90;;;;;;5046690;28;20882;-58
2023/12/28 03:40:12;;;;;;;5.80;3.17;;;7.00;99.90;;;;;;5045303;28;20279;-58
2023/12/28 03:42:40;;;;;;;7.55;2.90;;;6.90;99.90;;;;;;5043134;28;20273;-60
2023/12/28 03:45:09;;;;;;;5.47;3.10;;;7.00;99.90;;;;;;5045209;28;20213;-60
2023/12/28 03:47:36;;;;;;;6.97;3.08;;;7.00;99.90;;;;;;5046485;28;20202;-59
2023/12/28 03:50:05;;;;;;;7.82;3.00;;;7.00;99.90;;;;;;5052602;28;20210;-59
2023/12/28 03:52:35;;;;;;;3.55;2.67;;;7.00;99.90;;;;;;5053767;28;20226;-61
2023/12/28 03:55:03;;;;;;;6.97;3.15;;;7.00;99.90;;;;;;5053515;28;20733;-61
2023/12/28 03:57:31;;;;;;;5.68;2.80;;;7.00;99.90;;;;;;5053228;28;20213;-61
2023/12/28 03:59:58;;;;;;;3.40;2.55;;;7.00;99.90;;;;;;5053827;28;20217;-61
2023/12/28 04:02:30;;;;;;;4.65;2.88;;;7.10;99.90;;;;;;5044192;28;20709;-61
2023/12/28 04:04:58;;;;;;;3.38;2.80;;;7.10;99.90;;;;;;5044926;28;20667;-61
2023/12/28 04:07:26;;;;;;;4.32;2.33;;;7.20;99.90;;;;;;5053403;28;20202;-61
2023/12/28 04:09:58;;;;;;;3.65;2.42;;;7.30;99.90;;;;;;5053430;28;20263;-59
2023/12/28 04:12:28;;;;;;;5.18;2.60;;;7.40;99.90;;;;;;5053555;28;20225;-60
2023/12/28 04:14:56;;;;;;;4.70;2.78;;;7.50;99.90;;;;;;5053225;28;20644;-61
2023/12/28 04:17:23;;;;;;;9.15;2.90;;;7.60;99.90;;;;;;5053237;28;20244;-61
2023/12/28 04:19:51;;;;;;;3.38;2.70;;;7.60;99.90;;;;;;5053427;28;20210;-61
2023/12/28 04:22:20;;;;;;;4.22;2.30;;;7.60;99.90;;;;;;5052991;28;20222;-61
2023/12/28 04:24:47;;;;;;;4.68;2.53;;;7.60;99.90;;;;;;5053258;28;20668;-61
2023/12/28 04:27:17;;;;;;;3.55;2.20;;;7.60;99.90;;;;;;5053070;28;20210;-61
2023/12/28 04:29:46;;;;;;;2.67;2.47;;;7.60;99.90;;;;;;5052950;28;20210;-60
2023/12/28 04:32:13;;;;;;;2.60;2.22;;;7.60;99.90;;;;;;5048221;28;20269;-61
2023/12/28 04:34:42;;;;;;;2.97;2.05;;;7.60;99.90;;;;;;5052833;28;20233;-61
2023/12/28 04:37:10;;;;;;;5.88;1.90;;;7.60;99.90;;;;;;5052696;28;20210;-61
2023/12/28 04:39:38;;;;;;;3.85;2.53;;;7.60;99.90;;;;;;5052839;28;20719;-61
2023/12/28 04:42:06;;;;;;;6.93;2.53;;;7.60;99.90;;;;;;5052568;28;20226;-61
2023/12/28 04:44:39;;;;;;;6.30;2.70;;;7.60;99.90;;;;;;5052793;28;20248;-61
2023/12/28 04:47:07;;;;;;;2.58;2.38;;;7.60;99.90;;;;;;5052555;28;20209;-60
2023/12/28 04:49:35;;;;;;;2.80;2.47;;;7.70;99.90;;;;;;5052490;28;20251;-60
2023/12/28 04:52:03;;;;;;;3.28;2.28;;;7.80;99.90;;;;;;5052497;28;20264;-61
2023/12/28 04:54:32;;;;;;;4.65;2.15;;;7.80;99.90;;;;;;5052289;28;20756;-61
2023/12/28 04:57:00;;;;;;;2.53;2.15;;;8.00;99.90;;;;;;5052563;28;20609;-61
2023/12/28 04:59:28;;;;;;;3.58;2.10;;;8.00;99.90;;;;;;5052458;28;20268;-61
2023/12/28 05:01:57;;;;;;;3.20;2.30;;;8.10;99.90;;;;;;5051841;28;20772;-60
2023/12/28 05:04:25;;;;;;;2.85;2.03;;;8.10;99.90;;;;;;5041203;28;20225;-61
2023/12/28 05:06:53;;;;;;;5.28;2.17;;;8.10;99.90;;;;;;5041286;28;20269;-61
2023/12/28 05:09:21;;;;;;;2.13;1.92;;;8.20;99.90;;;;;;5044195;28;20210;-61
2023/12/28 05:11:49;;;;;;;2.47;2.22;;;8.20;99.90;;;;;;5044720;28;20230;-61
2023/12/28 05:14:17;;;;;;;2.67;2.10;;;8.20;99.90;;;;;;5041988;28;20276;-61
2023/12/28 05:16:44;;;;;;;2.28;2.08;;;8.30;99.90;;;;;;5040653;28;20234;-61
2023/12/28 05:19:14;;;;;;;2.72;1.95;;;8.30;99.90;;;;;;5042631;28;20272;-61
2023/12/28 05:21:42;;;;;;;6.18;2.25;;;8.30;99.90;;;;;;5044453;28;20237;-61
2023/12/28 05:24:10;;;;;;;2.20;1.95;;;8.30;99.90;;;;;;5042553;28;20214;-60
2023/12/28 05:26:38;;;;;;;5.70;2.55;;;8.40;99.90;;;;;;5040706;28;20695;-60
2023/12/28 05:29:06;;;;;;;2.30;1.75;;;8.30;99.90;;;;;;5040994;28;20210;-61
2023/12/28 05:31:33;;;;;;;2.70;2.35;;;8.40;99.90;;;;;;5042547;28;20244;-61
2023/12/28 05:34:02;;;;;;;2.75;1.98;;;8.40;99.90;;;;;;5039416;28;20202;-61
2023/12/28 05:36:31;;;;;;;3.15;2.40;;;8.40;99.90;;;;;;5040311;28;20209;-61
2023/12/28 05:38:59;;;;;;;3.60;1.83;;;8.40;99.90;;;;;;5040027;28;20206;-61
2023/12/28 05:41:27;;;;;;;2.17;2.03;;;8.40;99.90;;;;;;5038590;28;20253;-61
2023/12/28 05:43:55;;;;;;;4.38;2.25;;;8.40;99.90;;;;;;5049608;28;20206;-61
2023/12/28 05:46:22;;;;;;;3.38;2.17;;;8.40;99.90;;;;;;5041900;28;20210;-61
2023/12/28 05:48:50;;;;;;;3.00;2.40;;;8.40;99.90;;;;;;5049191;28;20213;-61
2023/12/28 05:51:19;;;;;;;2.30;2.00;;;8.40;99.90;;;;;;5036591;28;20287;-60
2023/12/28 05:53:48;;;;;;;2.20;1.95;;;8.40;99.90;;;;;;5039527;28;20203;-61
2023/12/28 05:56:16;;;;;;;2.78;2.20;;;8.40;99.90;;;;;;5039418;28;20225;-61
2023/12/28 05:58:44;;;;;;;4.47;1.95;;;8.40;99.90;;;;;;5045546;28;20624;-61
2023/12/28 06:01:12;;;;;;;3.88;2.22;;;8.40;99.90;;;;;;5049631;28;20723;-61
2023/12/28 06:03:40;;;;;;;4.65;2.13;;;8.40;99.90;;;;;;5036807;28;20202;-61
2023/12/28 06:06:08;;;;;;;2.45;2.25;;;8.40;99.90;;;;;;5041839;28;20206;-61
2023/12/28 06:08:35;;;;;;;2.70;2.47;;;8.40;99.90;;;;;;5043782;28;20202;-61
2023/12/28 06:11:05;;;;;;;2.33;2.10;;;8.40;99.90;;;;;;5050625;28;20229;-61
2023/12/28 06:13:33;;;;;;;2.70;2.50;;;8.40;99.90;;;;;;5034255;28;20202;-61
2023/12/28 06:16:00;;;;;;;2.65;2.45;;;8.40;99.90;;;;;;5042670;28;20234;-61
2023/12/28 06:18:28;;;;;;;4.20;2.30;;;8.30;99.90;;;;;;5042664;28;20285;-61
2023/12/28 06:20:56;;;;;;;3.83;2.17;;;8.30;99.90;;;;;;5035619;28;20207;-62
2023/12/28 06:23:26;;;;;;;1.85;1.63;;;8.40;99.90;;;;;;5050517;28;20241;-61
2023/12/28 06:25:54;;;;;;;1.70;1.52;;;8.40;99.90;;;;;;5047266;28;20248;-61
2023/12/28 06:28:23;;;;;;;2.00;1.83;;;8.40;99.90;;;;;;5045133;28;21322;-61
2023/12/28 06:30:52;;;;;;;1.58;1.55;;;8.40;99.90;;;;;;5037394;28;20271;-60
2023/12/28 06:33:20;;;;;;;1.55;1.55;;;8.50;99.90;;;;;;5039359;28;20203;-61
2023/12/28 06:35:48;;;;;;;1.73;1.40;;;8.40;99.90;;;;;;5037086;28;20235;-61
2023/12/28 06:38:16;;;;;;;1.55;1.45;;;8.40;99.90;;;;;;5046650;28;20655;-61
2023/12/28 06:40:43;;;;;;;1.55;1.45;;;8.40;99.90;;;;;;5037165;28;20233;-60
2023/12/28 06:43:11;;;;;;;1.45;1.40;;;8.40;99.90;;;;;;5043404;28;20920;-61
2023/12/28 06:45:41;;;;;;;3.33;1.55;;;8.40;99.90;;;;;;5044068;28;20198;-61
2023/12/28 06:48:09;;;;;;;2.00;1.63;;;8.40;99.90;;;;;;5041608;28;20237;-61
2023/12/28 06:50:37;;;;;;;1.88;1.33;;;8.40;99.90;;;;;;5050459;28;20680;-67
2023/12/28 06:53:05;;;;;;;1.70;1.52;;;8.50;99.90;;;;;;5043133;28;20329;-61
2023/12/28 06:55:32;;;;;;;2.55;1.50;;;8.40;99.90;;;;;;5048439;28;20307;-61
2023/12/28 06:58:01;;;;;;;1.33;1.27;;;8.40;99.90;;;;;;5050332;28;20206;-60
2023/12/28 07:00:29;;;;;;;1.77;1.50;;;8.50;99.90;;;;;;5042142;28;20217;-65
2023/12/28 07:02:58;;;;;;;1.33;1.30;;;8.50;99.90;;;;;;5043121;28;20321;-65
2023/12/28 07:05:26;;;;;;;1.30;1.30;;;8.50;99.90;;;;;;5043007;28;20194;-65
2023/12/28 07:07:54;;;;;;;1.42;1.42;;;8.50;99.90;;;;;;5050031;28;20217;-64
2023/12/28 07:10:22;;;;;;;2.10;1.40;;;8.50;99.90;;;;;;5049593;28;20214;-65
2023/12/28 07:12:50;;;;;;;1.52;1.48;;;8.50;99.90;;;;;;5046970;28;20313;-63
2023/12/28 07:15:18;;;;;;;1.42;1.33;;;8.50;99.90;;;;;;5039557;28;20726;-63
2023/12/28 07:17:46;;;;;;;1.98;1.40;;;8.50;99.90;;;;;;5032357;28;20680;-65
2023/12/28 07:20:16;;;;;;;1.75;1.67;;;8.60;99.90;;;;;;5048633;28;20230;-65
2023/12/28 07:22:43;;;;;;;4.05;1.40;;;8.50;99.90;;;;;;5044098;28;20230;-65
2023/12/28 07:25:11;;;;;;;1.25;1.23;;;8.50;99.90;;;;;;5051788;28;20558;-65
2023/12/28 07:27:39;;;;;;;1.63;1.52;;;8.50;99.90;;;;;;5044877;28;20632;-62
2023/12/28 07:30:08;;;;;;;2.75;1.60;;;8.50;99.90;;;;;;5054256;28;20206;-65
2023/12/28 07:32:36;;;;;;;1.67;1.58;;;8.60;99.90;;;;;;5044949;28;20245;-64
2023/12/28 07:35:04;;;;;;;3.35;1.60;;;8.60;99.90;;;;;;5048174;28;20232;-65
2023/12/28 07:37:34;;;;;;;1.55;1.45;;;8.60;99.90;;;;;;5050239;28;20660;-65
2023/12/28 07:40:02;;;;;;;3.05;1.88;;;8.60;99.90;;;;;;5050820;28;20271;-65
2023/12/28 07:42:30;;;;;;;2.28;1.88;;;8.60;99.90;;;;;;5053823;28;20257;-65
2023/12/28 07:44:58;;;;;;;5.28;1.90;;;8.60;99.90;;;;;;5041834;28;20629;-65
2023/12/28 07:47:26;;;;;;;2.55;1.80;;;8.60;99.90;;;;;;5046272;28;20202;-65
2023/12/28 07:49:54;;;;;;;2.22;2.10;;;8.60;99.90;;;;;;5046456;28;20206;-65
2023/12/28 07:52:22;;;;;;;2.60;1.90;;;8.60;99.90;;;;;;5034659;28;20311;-65
2023/12/28 07:54:51;;;;;;;3.95;2.10;;;8.60;99.90;;;;;;5044724;28;20297;-65
2023/12/28 07:57:19;;;;;;;2.92;1.85;;;8.60;99.90;;;;;;5045543;28;20317;-65
2023/12/28 07:59:47;;;;;;;1.98;1.88;;;8.60;99.90;;;;;;5043190;28;20203;-64
2023/12/28 08:02:15;;;;;;;2.65;1.98;;;8.60;99.90;;;;;;5051017;28;20226;-63
2023/12/28 08:04:48;;;;;;;4.43;2.20;;;8.70;99.90;;;;;;5041864;28;20202;-64
2023/12/28 08:07:16;;;;;;;2.35;1.77;;;8.70;99.90;;;;;;5049997;28;20548;-65
2023/12/28 08:09:44;;;;;;;1.88;1.77;;;8.70;99.90;;;;;;5047030;28;20264;-65
2023/12/28 08:12:14;;;;;;;2.25;1.90;;;8.80;99.90;;;;;;5053390;28;20229;-65
2023/12/28 08:14:42;;;;;;;4.07;1.98;;;8.70;99.90;;;;;;5053283;28;20206;-64
2023/12/28 08:17:10;;;;;;;2.13;1.90;;;8.70;99.90;;;;;;5053147;28;20225;-63
2023/12/28 08:19:37;;;;;;;2.58;1.88;;;8.70;99.90;;;;;;5053145;28;20271;-65
2023/12/28 08:22:05;;;;;;;6.15;2.38;;;8.80;99.90;;;;;;5052779;28;20578;-66
2023/12/28 08:24:34;;;;;;;2.03;1.85;;;8.80;99.90;;;;;;5053264;28;20271;-66
2023/12/28 08:27:02;;;;;;;3.55;2.00;;;8.90;99.90;;;;;;5053168;28;20241;-63
2023/12/28 08:29:32;;;;;;;4.00;1.85;;;8.90;99.90;;;;;;5052879;28;20206;-65
2023/12/28 08:32:00;;;;;;;2.67;1.90;;;8.90;99.90;;;;;;5047644;28;21705;-65
2023/12/28 08:34:27;;;;;;;3.05;1.75;;;8.90;99.90;;;;;;5042593;28;20206;-65
2023/12/28 08:36:56;;;;;;;4.13;2.55;;;9.00;99.90;;;;;;5040100;28;20226;-65
2023/12/28 08:39:24;;;;;;;3.13;1.90;;;9.00;99.90;;;;;;5045706;28;20293;-65
2023/12/28 08:41:51;;;;;;;4.60;1.90;;;9.00;99.90;;;;;;5043532;28;20226;-65
2023/12/28 08:44:19;;;;;;;5.28;1.70;;;9.00;99.90;;;;;;5044113;28;20206;-65
2023/12/28 08:46:49;;;;;;;3.55;2.08;;;9.00;99.90;;;;;;5047538;28;20206;-65
2023/12/28 08:49:16;;;;;;;4.05;1.77;;;9.00;99.90;;;;;;5041976;28;20703;-63
2023/12/28 08:51:44;;;;;;;4.38;2.13;;;9.00;99.90;;;;;;5047020;28;20230;-62
2023/12/28 08:54:12;;;;;;;2.35;1.92;;;9.00;99.90;;;;;;5047583;28;20237;-64
2023/12/28 08:56:40;;;;;;;3.95;1.73;;;9.00;99.90;;;;;;5046797;28;20214;-65
2023/12/28 08:59:08;;;;;;;3.35;1.92;;;9.00;99.90;;;;;;5047224;28;20625;-65
2023/12/28 09:01:37;;;;;;;2.45;2.03;;;9.00;99.90;;;;;;5042683;28;20222;-65
2023/12/28 09:04:06;;;;;;;4.43;2.30;;;9.00;99.90;;;;;;5052452;28;20305;-65
2023/12/28 09:06:35;;;;;;;3.83;1.63;;;9.00;99.90;;;;;;5052613;28;20198;-65
2023/12/28 09:09:04;;;;;;;2.17;1.98;;;9.10;99.90;;;;;;5052403;28;20214;-62
2023/12/28 09:11:31;;;;;;;2.55;2.00;;;9.10;99.90;;;;;;5052296;28;20733;-65
2023/12/28 09:13:59;;;;;;;4.22;1.88;;;9.20;99.90;;;;;;5052171;28;20206;-64
2023/12/28 09:16:28;;;;;;;5.60;2.15;;;9.20;99.90;;;;;;5050872;28;20226;-64
2023/12/28 09:18:56;;;;;;;4.13;1.83;;;9.30;99.90;;;;;;5052220;28;20213;-65
2023/12/28 09:21:26;;;;;;;4.80;2.00;;;9.30;99.90;;;;;;5052292;28;20248;-65
2023/12/28 09:23:54;;;;;;;7.57;2.45;;;9.40;99.90;;;;;;5052057;28;20220;-65
2023/12/28 09:26:22;;;;;;;2.40;1.58;;;9.40;99.90;;;;;;5051776;28;20207;-65
2023/12/28 09:28:50;;;;;;;4.95;1.88;;;9.50;99.90;;;;;;5051630;28;20646;-65
2023/12/28 09:31:18;;;;;;;3.13;1.70;;;9.60;99.90;;;;;;5052130;28;20284;-64
2023/12/28 09:33:46;;;;;;;2.40;1.67;;;9.60;99.90;;;;;;5038406;28;20663;-64
2023/12/28 09:36:15;;;;;;;3.38;1.67;;;9.70;99.90;;;;;;5048322;28;20241;-65
2023/12/28 09:38:45;;;;;;;4.85;1.70;;;9.80;99.90;;;;;;5051748;28;20206;-65
2023/12/28 09:41:14;;;;;;;3.15;1.80;;;9.80;99.90;;;;;;5050048;28;20226;-61
2023/12/28 09:43:46;;;;;;;2.65;1.80;;;9.90;99.90;;;;;;5037854;28;20210;-65
2023/12/28 09:46:15;;;;;;;1.77;1.63;;;9.90;99.90;;;;;;5047896;28;20241;-65
2023/12/28 09:48:43;;;;;;;4.85;1.65;;;10.00;99.90;;;;;;5049421;28;20264;-65
2023/12/28 09:51:11;;;;;;;2.05;1.77;;;10.10;99.90;;;;;;5049835;28;20717;-65
2023/12/28 09:53:42;;;;;;;1.63;1.48;;;10.10;99.90;;;;;;5051868;28;20252;-63
2023/12/28 09:56:12;;;;;;;4.10;2.10;;;10.20;99.90;;;;;;5051703;28;20212;-64
2023/12/28 09:58:40;;;;;;;1.70;1.70;;;10.40;99.90;;;;;;5041060;28;20236;-64
2023/12/28 10:01:08;;;;;;;3.15;1.70;;;10.60;99.90;;;;;;5049828;28;20225;-63
2023/12/28 10:03:36;;;;;;;4.47;1.63;;;10.70;99.90;;;;;;5049459;28;20205;-63
2023/12/28 10:06:04;;;;;;;4.55;1.40;;;10.90;99.90;;;;;;5049040;28;20210;-63
2023/12/28 10:08:32;;;;;;;1.58;1.42;;;10.90;99.90;;;;;;5048546;28;20202;-64
2023/12/28 10:11:00;;;;;;;3.35;1.70;;;10.80;99.90;;;;;;5049231;28;20718;-64
2023/12/28 10:13:30;;;;;;;2.22;1.60;;;10.80;99.90;;;;;;5049271;28;20729;-64
2023/12/28 10:15:58;;;;;;;3.05;1.40;;;11.00;99.90;;;;;;5049081;28;20285;-64
2023/12/28 10:18:26;;;;;;;1.52;1.30;;;11.10;99.90;;;;;;5049156;28;20218;-64
2023/12/28 10:20:54;;;;;;;3.35;1.48;;;11.20;99.90;;;;;;5048955;28;20387;-64
2023/12/28 10:23:22;;;;;;;4.30;1.60;;;11.30;99.90;;;;;;5049468;28;20255;-64
2023/12/28 10:25:52;;;;;;;4.22;1.77;;;11.40;99.90;;;;;;5048931;28;20240;-63
2023/12/28 10:28:20;;;;;;;2.65;1.75;;;11.50;99.90;;;;;;5046929;28;20206;-64
2023/12/28 10:30:50;;;;;;;1.90;1.48;;;11.70;99.90;;;;;;5048921;28;20238;-64
2023/12/28 10:33:19;;;;;;;1.63;1.35;;;11.80;99.90;;;;;;5037021;28;20654;-64
2023/12/28 10:35:48;;;;;;;4.65;1.60;;;11.80;99.90;;;;;;5050801;28;20206;-64
2023/12/28 10:38:17;;;;;;;2.80;1.50;;;11.70;99.90;;;;;;5048922;28;20677;-64
2023/12/28 10:40:45;;;;;;;3.58;1.30;;;11.60;99.90;;;;;;5040858;28;20245;-64
2023/12/28 10:43:16;;;;;;;3.17;1.40;;;11.60;99.90;;;;;;5049043;28;20210;-64
2023/12/28 10:45:47;;;;;;;2.47;1.30;;;11.80;99.90;;;;;;5050724;28;20242;-64
2023/12/28 10:48:16;;;;;;;2.15;1.38;;;11.90;99.90;;;;;;5050921;28;20206;-64
2023/12/28 10:50:51;;;;;;;5.35;1.48;;;12.00;99.90;;;;;;5040536;28;20209;-64
2023/12/28 10:53:38;;;;;;;1.88;1.38;;;11.90;99.90;;;;;;5048572;28;20212;-64
2023/12/28 10:56:20;;;;;;;4.05;1.52;;;11.80;99.90;;;;;;5047449;28;20209;-64
2023/12/28 10:58:50;;;;;;;1.23;1.20;;;11.90;99.90;;;;;;5041022;28;20313;-64
2023/12/28 11:01:23;;;;;;;4.30;1.63;;;11.80;99.90;;;;;;5051731;28;20230;-64
2023/12/28 11:03:57;;;;;;;2.63;1.50;;;11.70;99.90;;;;;;5052372;28;20651;-63
2023/12/28 11:06:26;;;;;;;2.22;1.40;;;11.70;99.90;;;;;;5049705;28;20887;-63
2023/12/28 11:08:54;;;;;;;5.85;1.35;;;11.60;99.90;;;;;;5052264;28;20214;-64
2023/12/28 11:11:22;;;;;;;2.15;1.38;;;11.60;99.90;;;;;;5052213;28;20647;-64
2023/12/28 11:13:51;;;;;;;3.55;1.70;;;11.60;99.90;;;;;;5052248;28;20202;-64
2023/12/28 11:16:19;;;;;;;3.92;1.52;;;11.60;99.90;;;;;;5049590;28;20217;-64
2023/12/28 11:18:47;;;;;;;4.43;1.50;;;11.50;99.90;;;;;;5051821;28;20670;-63
2023/12/28 11:21:16;;;;;;;3.67;1.50;;;11.40;99.90;;;;;;5051709;28;20313;-63
2023/12/28 11:23:46;;;;;;;1.38;1.17;;;11.40;99.90;;;;;;5040440;28;20217;-64
2023/12/28 11:26:18;;;;;;;2.53;1.52;;;11.40;99.90;;;;;;5049904;28;20629;-64
2023/12/28 11:28:45;;;;;;;3.20;1.30;;;11.40;99.90;;;;;;5043507;28;20205;-63
2023/12/28 11:31:14;;;;;;;3.03;1.50;;;11.30;99.90;;;;;;5051692;28;20257;-63
2023/12/28 11:33:46;;;;;;;1.58;1.45;;;11.30;99.90;;;;;;5040546;28;20236;-64
2023/12/28 11:36:22;;;;;;;3.25;1.30;;;11.20;99.90;;;;;;5054560;28;20293;-64
2023/12/28 11:38:51;;;;;;;2.00;1.52;;;11.10;99.90;;;;;;5043827;28;20225;-64
2023/12/28 11:41:20;;;;;;;3.63;1.55;;;11.10;99.90;;;;;;5051390;28;20715;-64
2023/12/28 11:43:53;;;;;;;2.50;1.60;;;11.10;99.90;;;;;;5040790;28;20259;-63
2023/12/28 11:46:21;;;;;;;1.67;1.58;;;11.00;99.90;;;;;;5048487;28;20206;-63
2023/12/28 11:48:49;;;;;;;3.28;1.50;;;11.00;99.90;;;;;;5051200;28;20202;-64
2023/12/28 11:51:18;;;;;;;6.53;1.90;;;10.90;99.90;;;;;;5051203;28;20287;-64
2023/12/28 11:53:47;;;;;;;4.95;1.50;;;10.90;99.90;;;;;;5054106;28;20217;-64
2023/12/28 11:56:17;;;;;;;2.50;1.40;;;10.90;99.90;;;;;;5053726;28;20300;-64
2023/12/28 11:58:46;;;;;;;3.63;1.58;;;10.90;99.90;;;;;;5053416;28;20230;-64
2023/12/28 12:01:14;;;;;;;5.75;1.83;;;10.90;99.90;;;;;;5053984;28;20247;-64
2023/12/28 12:03:43;;;;;;;3.60;1.40;;;10.90;99.90;;;;;;5053726;28;20252;-64
2023/12/28 12:06:10;;;;;;;4.22;1.50;;;10.90;99.90;;;;;;5053361;28;20256;-64
2023/12/28 12:08:39;;;;;;;3.75;1.50;;;11.00;99.90;;;;;;5053462;28;20814;-64
2023/12/28 12:11:08;;;;;;;3.00;1.30;;;11.10;99.90;;;;;;5052183;28;20206;-63
2023/12/28 12:13:36;;;;;;;2.75;1.27;;;11.20;99.90;;;;;;5053270;28;20202;-64
2023/12/28 12:16:05;;;;;;;3.85;1.40;;;11.30;99.90;;;;;;5053369;28;20213;-64
2023/12/28 12:18:35;;;;;;;4.10;1.30;;;11.30;99.90;;;;;;5053423;28;20222;-64
2023/12/28 12:21:03;;;;;;;2.17;1.20;;;11.30;99.90;;;;;;5053206;28;20847;-64
2023/12/28 12:23:31;;;;;;;2.45;1.30;;;11.30;99.90;;;;;;5053313;28;20206;-63
2023/12/28 12:25:59;;;;;;;3.53;1.20;;;11.30;99.90;;;;;;5052925;28;20202;-64
2023/12/28 12:28:28;;;;;;;3.05;1.35;;;11.40;99.90;;;;;;5050454;28;20202;-63
2023/12/28 12:30:56;;;;;;;3.58;1.52;;;11.40;99.90;;;;;;5053283;28;20213;-64
2023/12/28 12:33:24;;;;;;;4.88;1.42;;;11.40;99.90;;;;;;5053193;28;20208;-64
2023/12/28 12:35:52;;;;;;;3.40;1.80;;;11.50;99.90;;;;;;5052711;28;20202;-64
2023/12/28 12:38:20;;;;;;;4.85;1.35;;;11.50;99.90;;;;;;5052765;28;20230;-64
2023/12/28 12:40:51;;;;;;;6.57;2.03;;;11.60;99.90;;;;;;5041299;28;20238;-64
2023/12/28 12:43:20;;;;;;;3.38;1.35;;;11.60;99.90;;;;;;5050115;28;20205;-64
2023/12/28 12:45:49;;;;;;;4.43;1.30;;;11.60;99.90;;;;;;5049614;28;20838;-64
2023/12/28 12:48:17;;;;;;;2.20;1.27;;;11.60;99.90;;;;;;5047510;28;20682;-63
2023/12/28 12:50:46;;;;;;;4.05;1.83;;;11.50;99.90;;;;;;5048728;28;20630;-63
2023/12/28 12:53:13;;;;;;;2.60;1.85;;;11.50;99.90;;;;;;5049551;28;20655;-64
2023/12/28 12:55:42;;;;;;;3.47;1.45;;;11.50;99.90;;;;;;5049366;28;20303;-64
2023/12/28 12:58:12;;;;;;;2.05;1.25;;;11.60;99.90;;;;;;5047945;28;20199;-64